Kearns, Utah
Current Conditions -  °F | °C
As of 7:53 PM on Monday 20 Oct 2014 (Local Time) from KSLC Reporting Station
Few Clouds Few Clouds  
Wind Chill: 66°   Ceiling: Unl
Heat Index: 66°   Visibility: 10mi
Dew Point: 39°   Wind: 5mph
Humidity: 37%   Direction: 60°ENE
Pressure: 29.91"   Gusts: NA
Location:  40.65°N, 111.96°W
Report Text: KSLC 210153Z 06004KT 10SM FEW120 19/04 A2991 RMK AO2 SLP095 T01890039
Loading
Personal Weather Stations






























Interactive Weather Map New forecast layout! Learn more

10-Day Weather Forecast

Advertisements
Track Severe Weather on mobile